Time;durP1;ratioP1;P1;durP2;ratioP2;P2;SDS_P1;SDS_P2;PMS_P1;PMS_P2;Temp;Humidity;BMP_temperature;BMP_pressure;BME280_temperature;BME280_humidity;BME280_pressure;Samples;Min_cycle;Max_cycle;Signal;HPM_P1;HPM_P2
2022/11/14 00:00:02;;;;;;;30.40;18.50;;;7.90;80.20;;;;;;5056545;28;20031;-77
2022/11/14 00:02:27;;;;;;;30.37;18.07;;;7.80;80.30;;;;;;5074503;28;20032;-76
2022/11/14 00:04:53;;;;;;;26.13;15.83;;;7.80;80.30;;;;;;5074402;28;20024;-76
2022/11/14 00:07:18;;;;;;;26.97;16.90;;;7.70;80.70;;;;;;5023948;28;20034;-76
2022/11/14 00:09:44;;;;;;;29.90;19.33;;;7.70;80.60;;;;;;5036544;28;20033;-76
2022/11/14 00:12:10;;;;;;;30.63;19.30;;;7.70;81.30;;;;;;5053073;28;20036;-82
2022/11/14 00:14:37;;;;;;;29.57;18.50;;;7.70;81.10;;;;;;5036528;28;20083;-82
2022/11/14 00:17:04;;;;;;;31.77;18.00;;;7.60;81.20;;;;;;5036496;28;20032;-82
2022/11/14 00:19:29;;;;;;;31.33;18.23;;;7.50;81.20;;;;;;5054199;28;20481;-83
2022/11/14 00:21:55;;;;;;;29.23;18.87;;;7.50;81.20;;;;;;5054487;28;20029;-82
2022/11/14 00:24:21;;;;;;;34.33;19.60;;;7.50;81.40;;;;;;5036395;28;20040;-82
2022/11/14 00:26:46;;;;;;;32.30;18.80;;;7.40;81.40;;;;;;5036213;28;20032;-82
2022/11/14 00:29:14;;;;;;;29.47;18.17;;;7.40;81.50;;;;;;5036169;28;20025;-82
2022/11/14 00:31:40;;;;;;;32.47;19.30;;;7.40;81.60;;;;;;5036261;28;20028;-83
2022/11/14 00:34:06;;;;;;;36.80;20.23;;;7.30;81.60;;;;;;5036223;28;20078;-82
2022/11/14 00:36:32;;;;;;;30.60;18.33;;;7.20;81.70;;;;;;5035810;28;20045;-82
2022/11/14 00:38:57;;;;;;;35.80;20.47;;;7.30;81.90;;;;;;5018974;28;20048;-82
2022/11/14 00:41:23;;;;;;;37.03;20.80;;;7.30;82.10;;;;;;5053899;28;20480;-82
2022/11/14 00:43:49;;;;;;;35.03;20.83;;;7.10;82.00;;;;;;5053805;28;20143;-82
2022/11/14 00:46:14;;;;;;;31.20;18.27;;;7.20;82.20;;;;;;5053850;28;20020;-83
2022/11/14 00:48:40;;;;;;;35.87;21.17;;;7.20;82.60;;;;;;5019363;28;20044;-82
2022/11/14 00:51:06;;;;;;;33.93;20.40;;;7.10;82.50;;;;;;5035859;28;20021;-82
2022/11/14 00:53:32;;;;;;;35.60;21.17;;;7.20;82.70;;;;;;5035894;28;20120;-83
2022/11/14 00:55:57;;;;;;;37.90;21.67;;;7.00;83.00;;;;;;5052587;28;20056;-83
2022/11/14 00:58:23;;;;;;;35.93;21.07;;;7.00;82.90;;;;;;5053831;28;20021;-82
2022/11/14 01:00:49;;;;;;;37.07;21.83;;;6.90;82.90;;;;;;5053211;28;20033;-83
2022/11/14 01:03:14;;;;;;;37.00;21.80;;;6.90;83.00;;;;;;5030193;28;20035;-83
2022/11/14 01:05:45;;;;;;;37.33;21.53;;;6.90;83.10;;;;;;5035372;28;20021;-83
2022/11/14 01:08:12;;;;;;;35.53;21.10;;;6.80;83.20;;;;;;5035428;28;20025;-83
2022/11/14 01:10:39;;;;;;;38.17;21.77;;;6.80;83.20;;;;;;5052472;28;20048;-82
2022/11/14 01:13:05;;;;;;;41.53;21.53;;;6.80;83.30;;;;;;5035497;28;20028;-83
2022/11/14 01:15:31;;;;;;;36.60;21.37;;;6.80;83.60;;;;;;5035425;28;20478;-83
2022/11/14 01:17:56;;;;;;;39.37;22.23;;;6.80;83.60;;;;;;5053153;28;20025;-82
2022/11/14 01:20:22;;;;;;;37.77;21.80;;;6.70;83.90;;;;;;5051859;28;20036;-83
2022/11/14 01:22:47;;;;;;;39.83;22.93;;;6.70;84.10;;;;;;5018730;28;20029;-82
2022/11/14 01:25:13;;;;;;;42.27;23.87;;;6.70;84.10;;;;;;5035000;28;20029;-82
2022/11/14 01:27:39;;;;;;;41.00;24.63;;;6.60;84.10;;;;;;5018683;28;20067;-83
2022/11/14 01:30:05;;;;;;;39.50;22.43;;;6.60;84.20;;;;;;5053058;28;20070;-82
2022/11/14 01:32:31;;;;;;;40.50;23.43;;;6.60;84.60;;;;;;5034993;28;20112;-82
2022/11/14 01:34:56;;;;;;;38.07;22.53;;;6.60;84.60;;;;;;5018606;28;20450;-82
2022/11/14 01:37:22;;;;;;;38.57;22.57;;;6.50;84.60;;;;;;5051780;28;20033;-82
2022/11/14 01:39:47;;;;;;;40.10;23.47;;;6.50;84.80;;;;;;5035237;28;20370;-82
2022/11/14 01:42:13;;;;;;;40.17;23.53;;;6.50;85.50;;;;;;5052950;28;20035;-81
2022/11/14 01:44:51;;;;;;;42.00;24.80;;;6.40;85.00;;;;;;5053102;28;20021;-82
2022/11/14 01:47:21;;;;;;;38.53;23.33;;;6.30;85.10;;;;;;5052858;28;20108;-83
2022/11/14 01:49:50;;;;;;;43.73;25.00;;;6.40;85.30;;;;;;5036011;28;20031;-82
2022/11/14 01:52:25;;;;;;;42.03;24.03;;;6.30;85.40;;;;;;5057064;28;20436;-82
2022/11/14 01:54:56;;;;;;;40.80;23.23;;;6.30;85.60;;;;;;5057050;28;20047;-81
2022/11/14 01:57:28;;;;;;;42.73;23.67;;;6.30;85.80;;;;;;5039310;28;20035;-82
2022/11/14 01:59:56;;;;;;;39.63;22.57;;;6.30;85.90;;;;;;5056823;28;20057;-82
2022/11/14 02:02:24;;;;;;;36.23;21.53;;;6.30;85.90;;;;;;5056832;28;20032;-82
2022/11/14 02:05:04;;;;;;;40.67;24.17;;;6.20;85.90;;;;;;5022497;28;20616;-82
2022/11/14 02:07:33;;;;;;;47.47;26.13;;;6.20;86.10;;;;;;5038574;28;20021;-82
2022/11/14 02:10:02;;;;;;;45.50;23.63;;;6.20;86.20;;;;;;5038800;28;20028;-82
2022/11/14 02:12:28;;;;;;;44.10;24.37;;;6.20;86.30;;;;;;5038570;28;20021;-82
2022/11/14 02:14:55;;;;;;;40.70;23.93;;;6.20;86.50;;;;;;5038635;28;20025;-82
2022/11/14 02:17:22;;;;;;;43.03;24.07;;;6.10;86.50;;;;;;5038635;28;20493;-81
2022/11/14 02:19:52;;;;;;;42.33;24.13;;;6.10;86.60;;;;;;5021904;28;20499;-82
2022/11/14 02:22:17;;;;;;;43.93;23.80;;;6.10;86.70;;;;;;5038372;28;20024;-82
2022/11/14 02:24:44;;;;;;;43.90;24.87;;;6.00;86.80;;;;;;5038297;28;20033;-81
2022/11/14 02:27:11;;;;;;;45.23;25.97;;;6.00;87.30;;;;;;5038322;28;20538;-82
2022/11/14 02:29:37;;;;;;;39.40;22.73;;;6.00;87.30;;;;;;5038405;28;20017;-81
2022/11/14 02:32:03;;;;;;;43.73;24.10;;;6.00;87.30;;;;;;5056269;28;20028;-82
2022/11/14 02:34:28;;;;;;;45.87;25.17;;;6.00;87.60;;;;;;5038354;28;20021;-81
2022/11/14 02:36:54;;;;;;;40.67;24.10;;;6.00;87.80;;;;;;5056173;28;20499;-81
2022/11/14 02:39:21;;;;;;;44.07;23.80;;;6.00;87.80;;;;;;5038117;28;20082;-81
2022/11/14 02:41:46;;;;;;;45.60;24.27;;;6.00;87.90;;;;;;5038243;28;20111;-81
2022/11/14 02:44:12;;;;;;;49.47;24.90;;;5.90;88.00;;;;;;5055931;28;20114;-82
2022/11/14 02:46:37;;;;;;;44.03;23.17;;;5.90;88.00;;;;;;5054781;28;20456;-82
2022/11/14 02:49:03;;;;;;;46.50;25.77;;;5.90;88.00;;;;;;5038251;28;20033;-82
2022/11/14 02:51:28;;;;;;;44.30;23.87;;;5.90;88.10;;;;;;5054718;28;20473;-82
2022/11/14 02:53:54;;;;;;;42.90;23.60;;;5.80;88.10;;;;;;5038299;28;20124;-82
2022/11/14 02:56:20;;;;;;;41.57;23.50;;;5.80;88.30;;;;;;5054586;28;20029;-82
2022/11/14 02:58:45;;;;;;;49.43;26.93;;;5.80;88.40;;;;;;5037988;28;20037;-81
2022/11/14 03:01:11;;;;;;;44.43;23.47;;;5.80;88.60;;;;;;5020651;28;20560;-82
2022/11/14 03:03:36;;;;;;;43.57;23.27;;;5.80;88.60;;;;;;5038109;28;20029;-82
2022/11/14 03:06:03;;;;;;;49.10;26.33;;;5.90;88.80;;;;;;5037723;28;20385;-82
2022/11/14 03:08:29;;;;;;;47.80;24.30;;;5.70;89.00;;;;;;5037536;28;20090;-82
2022/11/14 03:10:55;;;;;;;43.97;24.07;;;5.70;88.90;;;;;;5037915;28;20037;-82
2022/11/14 03:13:20;;;;;;;48.73;25.73;;;5.80;89.10;;;;;;5055582;28;20116;-82
2022/11/14 03:15:46;;;;;;;41.83;23.70;;;5.70;89.20;;;;;;5037538;28;20029;-82
2022/11/14 03:18:12;;;;;;;43.07;23.27;;;5.70;89.20;;;;;;5054143;28;20029;-82
2022/11/14 03:20:38;;;;;;;44.60;24.83;;;5.70;89.30;;;;;;5055355;28;20033;-83
2022/11/14 03:23:04;;;;;;;48.33;25.63;;;5.60;89.40;;;;;;5037368;28;20024;-83
2022/11/14 03:25:29;;;;;;;47.80;25.30;;;5.60;89.50;;;;;;5037368;28;20029;-83
2022/11/14 03:27:55;;;;;;;42.67;23.87;;;5.60;89.60;;;;;;5054950;28;20040;-83
2022/11/14 03:30:21;;;;;;;42.97;23.27;;;5.60;89.80;;;;;;5037287;28;20078;-83
2022/11/14 03:32:46;;;;;;;41.90;24.77;;;5.50;89.80;;;;;;5020799;28;20032;-83
2022/11/14 03:35:12;;;;;;;42.60;23.80;;;5.50;89.90;;;;;;5020556;28;20056;-83
2022/11/14 03:37:37;;;;;;;46.63;24.80;;;5.60;90.00;;;;;;5053838;28;20033;-83
2022/11/14 03:40:04;;;;;;;47.13;26.03;;;5.50;90.30;;;;;;5037036;28;20032;-82
2022/11/14 03:42:33;;;;;;;46.63;24.50;;;5.50;90.10;;;;;;5036997;28;20033;-82
2022/11/14 03:44:59;;;;;;;43.77;22.80;;;5.50;90.10;;;;;;5054849;28;20025;-83
2022/11/14 03:47:24;;;;;;;42.73;23.80;;;5.50;90.10;;;;;;5036967;28;20124;-82
2022/11/14 03:49:50;;;;;;;44.47;24.87;;;5.40;90.20;;;;;;5054821;28;20496;-82
2022/11/14 03:52:16;;;;;;;48.20;25.33;;;5.50;90.30;;;;;;5036774;28;20064;-83
2022/11/14 03:54:41;;;;;;;45.80;25.07;;;5.40;90.30;;;;;;5036700;28;20086;-82
2022/11/14 03:57:07;;;;;;;45.90;24.77;;;5.40;90.30;;;;;;5036617;28;20120;-83
2022/11/14 03:59:32;;;;;;;44.80;24.33;;;5.40;90.30;;;;;;5036700;28;20120;-83
2022/11/14 04:01:58;;;;;;;39.93;22.13;;;5.40;90.30;;;;;;5036788;28;20029;-82
2022/11/14 04:04:24;;;;;;;46.03;24.17;;;5.40;90.40;;;;;;5036690;28;20044;-82
2022/11/14 04:06:49;;;;;;;44.03;24.30;;;5.30;90.40;;;;;;5036536;28;20033;-82
2022/11/14 04:09:15;;;;;;;46.30;23.27;;;5.30;90.40;;;;;;5036608;28;20029;-82
2022/11/14 04:11:40;;;;;;;43.57;23.30;;;5.30;90.40;;;;;;5036427;28;20029;-82
2022/11/14 04:14:06;;;;;;;48.37;25.17;;;5.30;90.50;;;;;;5053267;28;20064;-82
2022/11/14 04:16:32;;;;;;;46.73;24.10;;;5.30;90.60;;;;;;5053146;28;20122;-82
2022/11/14 04:18:57;;;;;;;39.57;21.97;;;5.20;90.90;;;;;;5036375;28;20028;-83
2022/11/14 04:21:23;;;;;;;45.03;23.30;;;5.20;90.70;;;;;;5054092;28;20033;-82
2022/11/14 04:23:48;;;;;;;44.53;23.47;;;5.10;90.70;;;;;;5051456;28;20427;-82
2022/11/14 04:26:14;;;;;;;45.27;23.33;;;5.20;90.80;;;;;;5013711;28;20025;-82
2022/11/14 04:28:40;;;;;;;46.20;23.80;;;5.20;90.80;;;;;;5018349;28;20060;-82
2022/11/14 04:31:05;;;;;;;43.90;22.77;;;5.20;90.90;;;;;;5034363;28;20466;-82
2022/11/14 04:33:31;;;;;;;45.27;23.70;;;5.20;90.90;;;;;;5035498;28;20033;-82
2022/11/14 04:35:56;;;;;;;46.20;23.73;;;5.10;91.00;;;;;;5019373;28;20048;-83
2022/11/14 04:38:22;;;;;;;44.57;23.47;;;5.10;91.00;;;;;;5035713;28;20296;-82
2022/11/14 04:40:49;;;;;;;44.63;23.70;;;5.10;91.10;;;;;;5019101;28;20118;-82
2022/11/14 04:43:15;;;;;;;43.00;21.93;;;5.10;91.10;;;;;;5036194;28;20361;-82
2022/11/14 04:45:41;;;;;;;44.37;22.83;;;5.10;91.10;;;;;;5053909;28;20043;-82
2022/11/14 04:48:06;;;;;;;45.37;22.77;;;5.10;91.20;;;;;;5053753;28;20477;-81
2022/11/14 04:50:32;;;;;;;44.30;21.77;;;5.20;91.20;;;;;;5053692;28;20029;-82
2022/11/14 04:52:57;;;;;;;41.83;21.53;;;5.10;91.20;;;;;;5053681;28;20028;-82
2022/11/14 04:55:23;;;;;;;44.10;22.90;;;5.10;91.20;;;;;;5036009;28;20165;-82
2022/11/14 04:57:54;;;;;;;41.23;21.60;;;4.90;91.20;;;;;;5035853;28;20029;-82
2022/11/14 05:00:20;;;;;;;39.67;21.17;;;5.00;91.20;;;;;;5036093;28;20025;-82
2022/11/14 05:02:46;;;;;;;43.20;24.03;;;5.00;91.30;;;;;;5036102;28;20090;-82
2022/11/14 05:05:11;;;;;;;46.13;22.43;;;5.00;91.30;;;;;;5019684;28;20029;-82
2022/11/14 05:07:37;;;;;;;44.87;23.30;;;5.00;91.30;;;;;;5035803;28;20069;-82
2022/11/14 05:10:03;;;;;;;47.83;23.97;;;5.10;91.40;;;;;;5019171;28;20051;-82
2022/11/14 05:12:29;;;;;;;54.30;25.73;;;4.90;91.40;;;;;;5053484;28;20036;-82
2022/11/14 05:14:54;;;;;;;47.03;23.60;;;4.90;91.50;;;;;;5002575;28;20028;-82
2022/11/14 05:17:20;;;;;;;46.27;22.47;;;4.90;91.80;;;;;;5019032;28;20393;-82
2022/11/14 05:19:46;;;;;;;48.57;24.00;;;4.90;91.60;;;;;;5019272;28;20064;-81
2022/11/14 05:22:11;;;;;;;44.10;21.97;;;4.90;91.60;;;;;;5019066;28;20028;-82
2022/11/14 05:24:37;;;;;;;44.67;24.63;;;4.90;91.70;;;;;;5035212;28;20120;-82
2022/11/14 05:27:02;;;;;;;43.27;21.50;;;4.80;91.70;;;;;;5035597;28;20029;-82
2022/11/14 05:29:28;;;;;;;52.97;23.17;;;4.80;91.80;;;;;;5018879;28;20021;-82
2022/11/14 05:31:54;;;;;;;43.43;23.07;;;4.80;91.80;;;;;;5002379;28;20026;-82
2022/11/14 05:34:19;;;;;;;42.97;21.50;;;4.80;91.80;;;;;;5035112;28;20063;-81
2022/11/14 05:36:45;;;;;;;46.50;23.77;;;4.80;91.90;;;;;;5035013;28;20045;-82
2022/11/14 05:39:11;;;;;;;44.60;22.60;;;4.80;91.90;;;;;;5035713;28;20025;-82
2022/11/14 05:41:36;;;;;;;47.13;22.43;;;4.80;92.00;;;;;;5053691;28;20029;-82
2022/11/14 05:44:05;;;;;;;46.13;24.83;;;4.80;92.00;;;;;;5035953;28;20031;-82
2022/11/14 05:46:31;;;;;;;45.33;23.07;;;4.70;92.00;;;;;;5053703;28;20051;-81
2022/11/14 05:48:57;;;;;;;46.53;23.67;;;4.70;92.00;;;;;;5035907;28;20032;-82
2022/11/14 05:51:22;;;;;;;51.60;23.90;;;4.70;92.10;;;;;;5007842;28;20024;-82
2022/11/14 05:53:48;;;;;;;51.73;23.20;;;4.70;92.20;;;;;;5035129;28;20021;-81
2022/11/14 05:56:14;;;;;;;46.30;23.90;;;4.70;92.20;;;;;;5044555;28;20025;-82
2022/11/14 05:58:40;;;;;;;46.27;23.73;;;4.70;92.30;;;;;;5022428;28;20025;-82
2022/11/14 06:01:14;;;;;;;44.83;22.37;;;4.70;92.30;;;;;;5026451;28;20029;-82
2022/11/14 06:03:43;;;;;;;42.63;21.37;;;4.60;92.20;;;;;;5052060;28;20024;-82
2022/11/14 06:06:13;;;;;;;47.77;22.07;;;4.60;92.30;;;;;;5051474;28;20054;-82
2022/11/14 06:08:39;;;;;;;47.33;23.37;;;4.60;92.30;;;;;;5034921;28;20117;-82
2022/11/14 06:11:10;;;;;;;42.77;22.10;;;4.60;92.30;;;;;;5034979;28;20022;-81
2022/11/14 06:13:36;;;;;;;45.47;22.53;;;4.60;92.40;;;;;;5052685;28;20033;-81
2022/11/14 06:16:06;;;;;;;48.80;23.93;;;4.60;92.50;;;;;;5034929;28;20440;-81
2022/11/14 06:18:33;;;;;;;44.00;21.27;;;4.60;92.50;;;;;;5034873;28;20087;-82
2022/11/14 06:21:00;;;;;;;42.53;20.97;;;4.60;92.50;;;;;;5035886;28;20381;-81
2022/11/14 06:23:26;;;;;;;40.63;21.13;;;4.60;92.50;;;;;;5002609;28;20112;-81
2022/11/14 06:25:57;;;;;;;42.87;21.80;;;4.60;92.60;;;;;;5018733;28;20032;-82
2022/11/14 06:28:23;;;;;;;41.70;22.20;;;4.60;92.60;;;;;;5041458;28;20482;-82
2022/11/14 06:30:48;;;;;;;37.50;19.77;;;4.70;92.70;;;;;;5021693;28;20120;-82
2022/11/14 06:33:14;;;;;;;44.60;21.93;;;4.60;92.70;;;;;;5055003;28;20028;-81
2022/11/14 06:35:40;;;;;;;43.10;21.23;;;4.60;92.70;;;;;;5034543;28;20048;-81
2022/11/14 06:38:05;;;;;;;41.27;22.23;;;4.60;92.80;;;;;;5055260;28;20033;-81
2022/11/14 06:40:31;;;;;;;38.23;20.37;;;4.50;92.80;;;;;;5038153;28;20041;-81
2022/11/14 06:42:56;;;;;;;41.83;20.37;;;4.50;92.80;;;;;;5038495;28;20025;-81
2022/11/14 06:45:22;;;;;;;43.60;20.83;;;4.50;92.80;;;;;;5038156;28;20029;-82
2022/11/14 06:47:48;;;;;;;46.87;21.67;;;4.50;92.90;;;;;;5054756;28;20037;-81
2022/11/14 06:50:13;;;;;;;40.50;20.33;;;4.50;92.90;;;;;;5056271;28;20021;-82
2022/11/14 06:52:39;;;;;;;41.80;20.67;;;4.40;92.90;;;;;;5028960;28;20036;-82
2022/11/14 06:55:05;;;;;;;43.13;20.73;;;4.50;93.00;;;;;;5038330;28;20021;-81
2022/11/14 06:57:31;;;;;;;43.80;21.07;;;4.40;93.00;;;;;;5054650;28;20029;-81
2022/11/14 06:59:56;;;;;;;42.07;20.70;;;4.40;93.00;;;;;;5054452;28;20148;-81
2022/11/14 07:02:22;;;;;;;43.83;21.83;;;4.40;93.10;;;;;;5054513;28;20025;-81
2022/11/14 07:04:47;;;;;;;36.50;19.37;;;4.30;93.10;;;;;;5046686;28;20025;-81
2022/11/14 07:07:13;;;;;;;42.50;19.77;;;4.40;93.20;;;;;;5044532;28;20041;-80
2022/11/14 07:09:39;;;;;;;41.77;20.10;;;4.40;93.30;;;;;;5042274;28;20393;-81
2022/11/14 07:12:04;;;;;;;41.67;20.83;;;4.40;93.30;;;;;;5039102;28;20067;-81
2022/11/14 07:14:30;;;;;;;38.83;19.20;;;4.40;93.30;;;;;;5024493;28;20067;-81
2022/11/14 07:16:57;;;;;;;40.27;20.30;;;4.40;93.30;;;;;;5034000;28;20060;-81
2022/11/14 07:19:22;;;;;;;40.67;20.60;;;4.40;93.40;;;;;;5038248;28;20205;-80
2022/11/14 07:21:48;;;;;;;42.13;20.73;;;4.40;93.40;;;;;;5030066;28;20109;-80
2022/11/14 07:24:14;;;;;;;38.50;18.77;;;4.40;93.40;;;;;;5010753;28;20026;-80
2022/11/14 07:26:39;;;;;;;40.43;19.27;;;4.50;93.50;;;;;;5034257;28;20097;-80
2022/11/14 07:29:05;;;;;;;39.60;20.77;;;4.50;93.50;;;;;;4995897;28;20026;-80
2022/11/14 07:31:30;;;;;;;37.63;19.30;;;4.50;93.60;;;;;;5028265;28;20029;-79
2022/11/14 07:33:56;;;;;;;38.20;19.03;;;4.50;93.60;;;;;;5017334;28;20437;-79
2022/11/14 07:36:22;;;;;;;32.90;18.10;;;4.50;93.90;;;;;;5052824;28;20035;-80
2022/11/14 07:38:48;;;;;;;38.73;19.37;;;4.60;93.70;;;;;;5065163;28;20025;-80
2022/11/14 07:41:15;;;;;;;42.47;20.80;;;4.60;93.70;;;;;;5020408;28;20441;-80
2022/11/14 07:43:41;;;;;;;38.87;19.77;;;4.60;93.70;;;;;;5020506;28;20089;-80
2022/11/14 07:46:14;;;;;;;39.37;20.73;;;4.60;93.80;;;;;;5054994;28;20090;-81
2022/11/14 07:48:40;;;;;;;41.20;20.20;;;4.70;93.80;;;;;;5037349;28;20031;-80
2022/11/14 07:51:14;;;;;;;36.03;17.63;;;4.70;93.80;;;;;;5026394;28;20354;-81
2022/11/14 07:53:40;;;;;;;36.03;18.40;;;4.70;93.90;;;;;;5063471;28;20021;-81
2022/11/14 07:56:10;;;;;;;33.33;17.47;;;4.80;93.90;;;;;;5060089;28;20359;-81
2022/11/14 07:58:37;;;;;;;36.57;19.30;;;4.90;93.90;;;;;;5053256;28;20059;-81
2022/11/14 08:01:04;;;;;;;34.00;18.13;;;4.90;93.90;;;;;;5053162;28;20021;-81
2022/11/14 08:03:30;;;;;;;37.73;19.67;;;4.90;93.90;;;;;;5036601;28;20115;-76
2022/11/14 08:06:04;;;;;;;35.43;18.97;;;5.00;93.90;;;;;;5056157;28;20379;-76
2022/11/14 08:08:30;;;;;;;37.75;19.52;;;5.00;93.90;;;;;;5061493;28;20021;-76
2022/11/14 08:10:57;;;;;;;36.40;18.50;;;5.00;93.90;;;;;;5042212;28;20032;-76
2022/11/14 08:13:23;;;;;;;35.40;19.43;;;5.00;93.90;;;;;;5024973;28;20040;-76
2022/11/14 08:15:49;;;;;;;37.20;19.33;;;5.10;93.90;;;;;;5044010;28;20030;-77
2022/11/14 08:18:15;;;;;;;31.63;17.23;;;5.10;93.90;;;;;;5051014;28;20028;-76
2022/11/14 08:20:41;;;;;;;33.40;17.60;;;5.20;93.90;;;;;;5032974;28;20087;-76
2022/11/14 08:23:07;;;;;;;32.30;17.70;;;5.20;94.00;;;;;;5016499;28;20030;-76
2022/11/14 08:25:32;;;;;;;34.80;17.60;;;5.30;94.00;;;;;;5040886;28;20040;-76
2022/11/14 08:27:58;;;;;;;31.77;17.20;;;5.30;94.00;;;;;;5030671;28;20024;-76
2022/11/14 08:30:24;;;;;;;33.37;17.50;;;5.40;94.00;;;;;;5061503;28;20025;-76
2022/11/14 08:32:50;;;;;;;32.83;16.93;;;5.40;94.10;;;;;;5036459;28;20032;-76
2022/11/14 08:35:16;;;;;;;32.53;17.60;;;5.50;94.10;;;;;;5052306;28;20045;-76
2022/11/14 08:37:41;;;;;;;30.50;16.33;;;5.60;94.20;;;;;;5036169;28;20037;-81
2022/11/14 08:40:07;;;;;;;29.13;17.30;;;5.60;94.10;;;;;;5033745;28;20033;-81
2022/11/14 08:42:33;;;;;;;31.20;17.10;;;5.60;94.10;;;;;;5032706;28;20083;-81
2022/11/14 08:44:58;;;;;;;33.13;16.37;;;5.60;94.00;;;;;;5002809;28;20060;-81
2022/11/14 08:47:24;;;;;;;27.03;15.30;;;5.70;94.00;;;;;;5058099;28;20120;-80
2022/11/14 08:49:50;;;;;;;31.30;16.90;;;5.80;94.00;;;;;;5038055;28;20024;-81
2022/11/14 08:52:15;;;;;;;29.97;16.30;;;5.80;94.00;;;;;;5037582;28;20052;-80
2022/11/14 08:54:41;;;;;;;29.77;15.27;;;5.90;94.00;;;;;;5041937;28;20029;-80
2022/11/14 08:57:07;;;;;;;29.00;17.00;;;6.00;93.90;;;;;;5073433;28;20028;-81
2022/11/14 08:59:33;;;;;;;29.63;16.97;;;6.00;93.90;;;;;;5032860;28;20029;-81
2022/11/14 09:01:59;;;;;;;27.93;16.13;;;6.10;93.90;;;;;;5039630;28;20056;-81
2022/11/14 09:04:24;;;;;;;26.17;14.83;;;6.10;93.80;;;;;;5050413;28;20465;-81
2022/11/14 09:06:50;;;;;;;27.20;16.10;;;6.20;93.80;;;;;;5035511;28;20036;-81
2022/11/14 09:09:16;;;;;;;26.57;15.43;;;6.30;93.70;;;;;;4999297;28;20041;-80
2022/11/14 09:11:42;;;;;;;27.57;15.20;;;6.40;93.70;;;;;;5053763;28;20559;-82
2022/11/14 09:14:08;;;;;;;28.23;15.93;;;6.40;93.60;;;;;;5040223;28;20037;-79
2022/11/14 09:16:33;;;;;;;28.87;16.13;;;6.50;93.60;;;;;;5053846;28;20104;-82
2022/11/14 09:18:59;;;;;;;29.27;15.50;;;6.60;93.60;;;;;;5055373;28;20400;-82
2022/11/14 09:21:25;;;;;;;28.93;16.60;;;6.70;93.60;;;;;;5072901;28;20564;-82
2022/11/14 09:23:51;;;;;;;26.60;15.30;;;6.90;93.60;;;;;;5055369;28;20123;-83
2022/11/14 09:26:17;;;;;;;30.10;15.90;;;7.30;93.60;;;;;;5055292;28;20071;-83
2022/11/14 09:28:43;;;;;;;22.47;13.70;;;7.40;93.60;;;;;;5038619;28;20036;-83
2022/11/14 09:31:10;;;;;;;24.80;13.77;;;7.90;93.90;;;;;;5055370;28;20070;-83
2022/11/14 09:33:36;;;;;;;19.77;12.47;;;8.30;94.20;;;;;;5055536;28;20048;-83
2022/11/14 09:36:05;;;;;;;22.33;12.80;;;8.80;94.50;;;;;;5021899;28;20060;-83
2022/11/14 09:38:32;;;;;;;20.70;11.83;;;9.40;94.60;;;;;;5055166;28;20380;-82
2022/11/14 09:41:03;;;;;;;19.77;11.05;;;10.10;94.80;;;;;;5055297;28;20029;-83
2022/11/14 09:43:47;;;;;;;16.05;9.32;;;10.80;94.70;;;;;;5055027;28;20037;-83
2022/11/14 09:46:24;;;;;;;14.57;8.80;;;11.50;94.20;;;;;;5055254;28;20032;-83
2022/11/14 09:48:52;;;;;;;15.73;9.52;;;12.40;93.70;;;;;;5054971;28;20037;-83
2022/11/14 09:51:22;;;;;;;16.20;9.75;;;13.00;92.40;;;;;;5055001;28;20016;-78
2022/11/14 09:53:56;;;;;;;13.98;9.27;;;13.70;91.80;;;;;;5073115;28;20013;-76
2022/11/14 09:56:25;;;;;;;14.18;8.38;;;14.30;90.60;;;;;;5037605;28;20080;-75
2022/11/14 09:58:51;;;;;;;15.32;9.90;;;14.90;89.10;;;;;;5032582;28;20025;-75
2022/11/14 10:01:48;;;;;;;13.60;9.55;;;15.40;86.50;;;;;;5032766;28;20059;-75
2022/11/14 10:04:31;;;;;;;14.82;9.27;;;15.90;82.30;;;;;;5040927;28;20087;-78
2022/11/14 10:07:32;;;;;;;15.60;8.10;;;16.50;79.40;;;;;;5023551;28;20108;-76
2022/11/14 10:10:23;;;;;;;12.43;8.60;;;17.00;76.50;;;;;;5006308;28;20159;-76
2022/11/14 10:13:06;;;;;;;14.13;9.05;;;17.40;75.30;;;;;;5033533;28;20103;-75
2022/11/14 10:16:00;;;;;;;12.17;8.00;;;17.90;73.20;;;;;;5047127;28;20025;-75
2022/11/14 10:18:57;;;;;;;13.80;8.70;;;18.40;70.90;;;;;;5047162;28;20268;-76
2022/11/14 10:21:37;;;;;;;12.10;8.25;;;18.80;69.30;;;;;;5046765;28;20024;-75
2022/11/14 10:24:23;;;;;;;12.82;8.63;;;19.00;67.40;;;;;;5042070;28;20095;-76
2022/11/14 10:27:04;;;;;;;13.98;9.70;;;19.10;65.50;;;;;;5034924;28;20167;-76
2022/11/14 10:29:41;;;;;;;13.27;8.80;;;19.10;60.30;;;;;;5034873;28;20029;-75
2022/11/14 10:32:45;;;;;;;13.55;9.27;;;19.00;59.20;;;;;;5034984;28;20108;-76
2022/11/14 10:35:33;;;;;;;11.48;8.02;;;18.70;58.20;;;;;;5019524;28;20059;-81
2022/11/14 10:38:10;;;;;;;15.65;10.18;;;18.60;58.90;;;;;;5034732;28;20031;-82
2022/11/14 10:40:43;;;;;;;13.77;9.35;;;18.50;56.80;;;;;;5037027;28;20413;-81
2022/11/14 10:43:27;;;;;;;13.68;9.55;;;18.50;56.50;;;;;;5035900;28;20469;-83
2022/11/14 10:45:59;;;;;;;12.63;9.07;;;18.60;56.60;;;;;;5036214;28;20034;-83
2022/11/14 10:48:36;;;;;;;15.33;10.40;;;18.70;57.00;;;;;;5037120;28;20037;-83
2022/11/14 10:51:06;;;;;;;12.43;8.55;;;18.90;56.80;;;;;;5035490;28;20629;-78
2022/11/14 10:53:47;;;;;;;15.57;9.40;;;19.20;56.50;;;;;;5034546;28;20025;-78
2022/11/14 10:56:13;;;;;;;12.63;9.00;;;19.50;55.30;;;;;;5035664;28;20428;-78
2022/11/14 10:58:40;;;;;;;13.90;9.10;;;19.70;55.30;;;;;;5017943;28;20470;-78
2022/11/14 11:01:31;;;;;;;12.25;9.13;;;19.90;54.90;;;;;;5018149;28;20033;-78
2022/11/14 11:03:57;;;;;;;12.98;8.90;;;20.10;54.00;;;;;;5017995;28;20029;-78
2022/11/14 11:06:28;;;;;;;11.15;8.02;;;20.30;54.30;;;;;;5017948;28;20496;-79
2022/11/14 11:11:38;;;;;;;;;;;20.80;53.30;;;;;;5035249;28;20043;-79
2022/11/14 11:14:05;;;;;;;10.63;7.78;;;21.00;53.00;;;;;;5034246;28;19905;-78
2022/11/14 11:16:30;;;;;;;17.63;10.82;;;21.10;52.90;;;;;;5018045;28;20021;-83
2022/11/14 11:19:21;;;;;;;14.23;10.48;;;21.10;50.60;;;;;;5018379;28;20078;-77
2022/11/14 11:21:50;;;;;;;14.50;10.52;;;20.80;50.10;;;;;;5034021;28;20021;-78
2022/11/14 11:24:34;;;;;;;15.43;10.35;;;20.50;50.30;;;;;;5033228;28;20078;-76
2022/11/14 11:27:19;;;;;;;16.30;11.43;;;20.20;50.40;;;;;;5035211;28;20088;-77
2022/11/14 11:29:45;;;;;;;14.90;11.05;;;19.90;50.40;;;;;;5035339;28;20096;-76
2022/11/14 11:32:22;;;;;;;17.02;12.13;;;19.40;50.60;;;;;;5017438;28;20026;-76
2022/11/14 11:34:48;;;;;;;17.92;12.70;;;18.70;51.40;;;;;;5036538;28;20025;-76
2022/11/14 11:37:13;;;;;;;19.83;13.68;;;17.90;52.60;;;;;;5036949;28;20378;-76
2022/11/14 11:39:53;;;;;;;20.38;14.23;;;17.20;54.20;;;;;;5037141;28;20029;-78
2022/11/14 11:42:41;;;;;;;20.25;13.50;;;16.40;55.60;;;;;;5036564;28;20530;-75
2022/11/14 11:45:16;;;;;;;21.50;14.63;;;15.80;57.40;;;;;;5036749;28;20025;-77
2022/11/14 11:47:53;;;;;;;22.40;15.40;;;15.20;58.30;;;;;;5054774;28;20069;-76
2022/11/14 11:50:21;;;;;;;23.27;16.67;;;14.80;59.70;;;;;;5036732;28;20095;-76
2022/11/14 11:53:11;;;;;;;22.13;16.10;;;14.40;60.70;;;;;;5037298;28;20021;-77
2022/11/14 11:55:51;;;;;;;22.45;15.40;;;14.00;61.40;;;;;;5036934;28;20017;-77
2022/11/14 11:58:26;;;;;;;26.77;16.75;;;13.70;62.30;;;;;;5036700;28;20017;-76
2022/11/14 12:00:56;;;;;;;27.48;17.08;;;13.40;64.10;;;;;;5036733;28;20017;-76
2022/11/14 12:03:25;;;;;;;25.80;16.48;;;13.10;64.50;;;;;;5036630;28;20090;-78
2022/11/14 12:06:04;;;;;;;28.60;18.05;;;12.90;65.00;;;;;;5036580;28;20021;-78
2022/11/14 12:08:54;;;;;;;38.85;18.42;;;12.60;66.00;;;;;;5054403;28;20505;-78
2022/11/14 12:11:23;;;;;;;28.45;19.05;;;12.40;66.60;;;;;;5054413;28;20039;-78
2022/11/14 12:14:04;;;;;;;30.97;19.23;;;12.30;68.10;;;;;;5036430;28;20469;-78
2022/11/14 12:16:56;;;;;;;33.50;18.43;;;12.10;68.40;;;;;;5036441;28;20029;-77
2022/11/14 12:19:46;;;;;;;29.83;20.27;;;11.90;69.00;;;;;;5032124;28;20482;-77
2022/11/14 12:22:48;;;;;;;31.63;20.23;;;11.80;69.90;;;;;;5015349;28;20041;-77
2022/11/14 12:25:42;;;;;;;33.40;20.20;;;11.60;70.50;;;;;;5029210;28;20022;-78
2022/11/14 12:28:29;;;;;;;32.13;20.88;;;11.40;70.80;;;;;;4974974;28;20045;-76
2022/11/14 12:30:59;;;;;;;35.40;22.47;;;11.40;71.90;;;;;;4991126;28;20379;-76
2022/11/14 12:33:31;;;;;;;32.57;20.07;;;11.20;72.30;;;;;;4992486;28;20066;-76
2022/11/14 12:36:00;;;;;;;34.83;21.23;;;11.10;72.60;;;;;;4975562;28;20065;-77
2022/11/14 12:38:33;;;;;;;34.90;21.33;;;11.00;72.90;;;;;;4992262;28;20038;-77
2022/11/14 12:41:00;;;;;;;35.77;22.43;;;11.00;73.20;;;;;;4991312;28;20042;-77
2022/11/14 12:43:35;;;;;;;31.33;19.90;;;11.00;73.20;;;;;;4976420;28;20034;-76
2022/11/14 12:46:10;;;;;;;31.50;20.00;;;11.00;74.10;;;;;;4992296;28;20031;-77